Nearby METAR Reports

 

KBOS - Boston, MA, USA
Distance from station: SE 24mi, 39km
Updated: Apr/15/2024 12:54am
Overcast
Overcast
 Wind from calm
Wind: Calm
Temperature: 48°F, 9°C
Dew Point: 45°F, 7°C
Humidity: 87%
Barometer: 29.68 inHg, 1005.1 hPa
Clouds: Overcast
Visibility: 10 miles, 16 km
Cloud details: Partly cloudy 7000 ft
Overcast 25000 ft
2024/04/15 04:54 KBOS 150454Z 00000KT 10SM SCT070 OVC250 09/07 A2968 RMK AO2 RAE15 SLP049 P0000 T00940067 401560078 $
KBED - Bedford, MA, USA
Distance from station: S 11mi, 18km
Updated: Apr/15/2024 12:51am
Few Clouds
Few Clouds
 Wind from calm
Wind: Calm
Temperature: 46°F, 8°C
Dew Point: 45°F, 7°C
Humidity: 93%
Barometer: 29.68 inHg, 1005.1 hPa
Clouds: Few Clouds
Visibility: 10 miles, 16 km
Cloud details: Few Clouds 7500 ft
2024/04/15 04:51 KBED 150451Z AUTO 00000KT 10SM FEW075 08/07 A2968 RMK AO2 SLP063 T00830072 401500050
KLWM - Lawrence, MA, USA
Distance from station: ENE 12mi, 19km
Updated: Apr/15/2024 12:54am
Clear
Clear
 Wind from calm
Wind: Calm
Temperature: 46°F, 8°C
Dew Point: 43°F, 6°C
Humidity: 87%
Barometer: 29.70 inHg, 1005.8 hPa
Clouds: Clear
Visibility: 10 miles, 16 km
2024/04/15 04:54 KLWM 150454Z AUTO 00000KT 10SM CLR 08/06 A2970 RMK AO2 SLP058 T00830061 401610039
 
KASH - Nashua, NH, USA
Distance from station: NW 14mi, 23km
Updated: Apr/15/2024 12:56am
Few Clouds
Few Clouds
 Wind from calm
Wind: Calm
Temperature: 46°F, 8°C
Barometer: 29.71 inHg, 1006.1 hPa
Clouds: Few Clouds
Visibility: 9 miles, 14 km
Cloud details: Few Clouds 300 ft
2024/04/15 04:56 KASH 150456Z AUTO 00000KT 9SM FEW003 08/ A2971 RMK AO2 SLP065 T0078 401560022
KMHT - Manchester, NH, USA
Distance from station: NNW 22mi, 35km
Updated: Apr/15/2024 12:53am
Mist, Mostly cloudy
Mist, Mostly cloudy
 Wind from calm
Wind: Calm
Temperature: 45°F, 7°C
Dew Point: 43°F, 6°C
Humidity: 93%
Barometer: 29.69 inHg, 1005.4 hPa
Summary: Mist
Clouds: Mostly cloudy
Visibility: 4 miles, 6 km
Cloud details: Mostly cloudy 11000 ft
2024/04/15 04:53 KMHT 150453Z 00000KT 4SM BR BKN110 07/06 A2969 RMK AO2 SLP066 T00720061 401670033
KFIT - Fitchburg, MA, USA
Distance from station: WSW 22mi, 35km
Updated: Apr/15/2024 1:16am
Mist, Overcast
Mist, Overcast
 Wind from calm
Wind: Calm
Temperature: 45°F, 7°C
Dew Point: 43°F, 6°C
Humidity: 93%
Barometer: 29.70 inHg, 1005.8 hPa
Summary: Mist
Clouds: Overcast
Visibility: 3/4 mile, 1.2 km
Cloud details: Overcast 200 ft
2024/04/15 05:16 KFIT 150516Z AUTO 00000KT 3/4SM BR VV002 07/06 A2970 RMK AO2 VIS 1/2V4 T00720061